sensor_id;sensor_type;location;lat;lon;timestamp;P1;durP1;ratioP1;P2;durP2;ratioP2
75700;SDS011;64321;48.796;44.740;2023-02-01T00:03:15;30.98;;;13.32;;
75700;SDS011;64321;48.796;44.740;2023-02-01T00:08:20;39.38;;;14.98;;
75700;SDS011;64321;48.796;44.740;2023-02-01T00:13:22;39.67;;;17.75;;
75700;SDS011;64321;48.796;44.740;2023-02-01T00:18:25;46.05;;;20.52;;
75700;SDS011;64321;48.796;44.740;2023-02-01T00:23:27;43.30;;;20.23;;
75700;SDS011;64321;48.796;44.740;2023-02-01T00:28:29;46.47;;;19.15;;
75700;SDS011;64321;48.796;44.740;2023-02-01T00:33:32;44.53;;;18.73;;
75700;SDS011;64321;48.796;44.740;2023-02-01T00:38:37;40.00;;;17.55;;
75700;SDS011;64321;48.796;44.740;2023-02-01T00:43:40;45.67;;;19.80;;
75700;SDS011;64321;48.796;44.740;2023-02-01T00:48:43;45.00;;;18.63;;
75700;SDS011;64321;48.796;44.740;2023-02-01T00:53:45;38.03;;;17.58;;
75700;SDS011;64321;48.796;44.740;2023-02-01T00:58:47;43.33;;;17.92;;
75700;SDS011;64321;48.796;44.740;2023-02-01T01:03:51;38.38;;;16.90;;
75700;SDS011;64321;48.796;44.740;2023-02-01T01:08:55;42.05;;;17.38;;
75700;SDS011;64321;48.796;44.740;2023-02-01T01:13:58;33.00;;;13.10;;
75700;SDS011;64321;48.796;44.740;2023-02-01T01:19:01;32.30;;;12.85;;
75700;SDS011;64321;48.796;44.740;2023-02-01T01:24:03;31.15;;;12.75;;
75700;SDS011;64321;48.796;44.740;2023-02-01T01:29:06;28.38;;;10.98;;
75700;SDS011;64321;48.796;44.740;2023-02-01T01:34:08;29.17;;;13.75;;
75700;SDS011;64321;48.796;44.740;2023-02-01T01:39:10;22.95;;;10.48;;
75700;SDS011;64321;48.796;44.740;2023-02-01T01:49:33;26.52;;;12.95;;
75700;SDS011;64321;48.796;44.740;2023-02-01T01:54:40;31.92;;;14.05;;
75700;SDS011;64321;48.796;44.740;2023-02-01T01:59:43;36.25;;;15.93;;
75700;SDS011;64321;48.796;44.740;2023-02-01T02:04:48;38.88;;;15.52;;
75700;SDS011;64321;48.796;44.740;2023-02-01T02:09:50;29.23;;;12.57;;
75700;SDS011;64321;48.796;44.740;2023-02-01T02:15:03;36.92;;;15.18;;
75700;SDS011;64321;48.796;44.740;2023-02-01T02:20:20;33.42;;;14.10;;
75700;SDS011;64321;48.796;44.740;2023-02-01T02:35:39;28.92;;;15.35;;
75700;SDS011;64321;48.796;44.740;2023-02-01T02:46:23;31.88;;;14.35;;
75700;SDS011;64321;48.796;44.740;2023-02-01T02:56:58;29.73;;;12.52;;
75700;SDS011;64321;48.796;44.740;2023-02-01T03:02:20;34.65;;;14.10;;
75700;SDS011;64321;48.796;44.740;2023-02-01T03:12:47;23.33;;;10.63;;
75700;SDS011;64321;48.796;44.740;2023-02-01T03:18:00;25.88;;;10.10;;
75700;SDS011;64321;48.796;44.740;2023-02-01T03:23:04;26.65;;;12.43;;
75700;SDS011;64321;48.796;44.740;2023-02-01T03:28:09;27.00;;;10.15;;
75700;SDS011;64321;48.796;44.740;2023-02-01T03:33:13;25.50;;;10.55;;
75700;SDS011;64321;48.796;44.740;2023-02-01T03:43:38;30.00;;;13.45;;
75700;SDS011;64321;48.796;44.740;2023-02-01T03:48:41;31.35;;;13.80;;
75700;SDS011;64321;48.796;44.740;2023-02-01T03:53:44;36.15;;;15.60;;
75700;SDS011;64321;48.796;44.740;2023-02-01T03:58:48;42.45;;;15.48;;
75700;SDS011;64321;48.796;44.740;2023-02-01T04:04:06;44.47;;;14.52;;
75700;SDS011;64321;48.796;44.740;2023-02-01T04:09:09;33.55;;;14.95;;
75700;SDS011;64321;48.796;44.740;2023-02-01T04:14:11;38.15;;;14.38;;
75700;SDS011;64321;48.796;44.740;2023-02-01T04:19:13;37.45;;;15.30;;
75700;SDS011;64321;48.796;44.740;2023-02-01T04:24:15;35.10;;;14.20;;
75700;SDS011;64321;48.796;44.740;2023-02-01T04:29:17;40.63;;;16.70;;
75700;SDS011;64321;48.796;44.740;2023-02-01T04:34:20;34.08;;;12.23;;
75700;SDS011;64321;48.796;44.740;2023-02-01T04:39:24;27.67;;;11.07;;
75700;SDS011;64321;48.796;44.740;2023-02-01T04:44:26;25.90;;;10.48;;
75700;SDS011;64321;48.796;44.740;2023-02-01T04:49:28;28.15;;;10.00;;
75700;SDS011;64321;48.796;44.740;2023-02-01T04:54:30;27.40;;;9.07;;
75700;SDS011;64321;48.796;44.740;2023-02-01T04:59:33;28.63;;;11.60;;
75700;SDS011;64321;48.796;44.740;2023-02-01T05:04:35;27.40;;;10.65;;
75700;SDS011;64321;48.796;44.740;2023-02-01T05:09:37;31.20;;;10.48;;
75700;SDS011;64321;48.796;44.740;2023-02-01T05:14:39;28.95;;;9.65;;
75700;SDS011;64321;48.796;44.740;2023-02-01T05:19:42;28.30;;;10.45;;
75700;SDS011;64321;48.796;44.740;2023-02-01T05:24:44;29.67;;;10.23;;
75700;SDS011;64321;48.796;44.740;2023-02-01T05:29:46;29.08;;;10.57;;
75700;SDS011;64321;48.796;44.740;2023-02-01T05:34:48;26.30;;;10.48;;
75700;SDS011;64321;48.796;44.740;2023-02-01T05:39:52;28.90;;;9.18;;
75700;SDS011;64321;48.796;44.740;2023-02-01T05:44:54;30.92;;;11.77;;
75700;SDS011;64321;48.796;44.740;2023-02-01T05:49:56;25.25;;;10.20;;
75700;SDS011;64321;48.796;44.740;2023-02-01T05:54:59;25.90;;;10.23;;
75700;SDS011;64321;48.796;44.740;2023-02-01T06:00:03;23.00;;;8.77;;
75700;SDS011;64321;48.796;44.740;2023-02-01T06:05:13;26.85;;;9.35;;
75700;SDS011;64321;48.796;44.740;2023-02-01T06:10:16;25.05;;;9.35;;
75700;SDS011;64321;48.796;44.740;2023-02-01T06:15:19;22.13;;;8.90;;
75700;SDS011;64321;48.796;44.740;2023-02-01T06:20:21;23.40;;;11.30;;
75700;SDS011;64321;48.796;44.740;2023-02-01T06:25:24;26.20;;;10.88;;
75700;SDS011;64321;48.796;44.740;2023-02-01T06:30:26;28.50;;;11.93;;
75700;SDS011;64321;48.796;44.740;2023-02-01T06:35:30;28.40;;;13.48;;
75700;SDS011;64321;48.796;44.740;2023-02-01T06:40:32;26.67;;;12.50;;
75700;SDS011;64321;48.796;44.740;2023-02-01T06:45:34;29.30;;;13.32;;
75700;SDS011;64321;48.796;44.740;2023-02-01T06:50:36;29.73;;;13.43;;
75700;SDS011;64321;48.796;44.740;2023-02-01T06:55:39;30.17;;;12.93;;
75700;SDS011;64321;48.796;44.740;2023-02-01T07:00:41;29.70;;;11.98;;
75700;SDS011;64321;48.796;44.740;2023-02-01T07:05:43;25.17;;;11.23;;
75700;SDS011;64321;48.796;44.740;2023-02-01T07:10:45;26.85;;;12.43;;
75700;SDS011;64321;48.796;44.740;2023-02-01T07:15:47;23.30;;;11.63;;
75700;SDS011;64321;48.796;44.740;2023-02-01T07:20:50;24.73;;;11.65;;
75700;SDS011;64321;48.796;44.740;2023-02-01T07:25:54;19.10;;;9.18;;
75700;SDS011;64321;48.796;44.740;2023-02-01T07:31:03;26.42;;;11.45;;
75700;SDS011;64321;48.796;44.740;2023-02-01T07:36:07;24.13;;;10.63;;
75700;SDS011;64321;48.796;44.740;2023-02-01T07:41:10;22.65;;;11.65;;
75700;SDS011;64321;48.796;44.740;2023-02-01T07:46:12;24.80;;;12.07;;
75700;SDS011;64321;48.796;44.740;2023-02-01T07:51:17;22.88;;;10.95;;
75700;SDS011;64321;48.796;44.740;2023-02-01T07:56:19;24.30;;;12.10;;
75700;SDS011;64321;48.796;44.740;2023-02-01T08:01:23;25.40;;;12.15;;
75700;SDS011;64321;48.796;44.740;2023-02-01T08:06:30;26.45;;;12.45;;
75700;SDS011;64321;48.796;44.740;2023-02-01T08:11:33;29.35;;;12.63;;
75700;SDS011;64321;48.796;44.740;2023-02-01T08:16:35;30.08;;;13.27;;
75700;SDS011;64321;48.796;44.740;2023-02-01T08:21:39;26.50;;;13.80;;
75700;SDS011;64321;48.796;44.740;2023-02-01T08:26:41;31.52;;;13.27;;
75700;SDS011;64321;48.796;44.740;2023-02-01T08:31:44;27.80;;;13.60;;
75700;SDS011;64321;48.796;44.740;2023-02-01T08:36:46;24.13;;;10.68;;
75700;SDS011;64321;48.796;44.740;2023-02-01T08:41:49;28.90;;;13.40;;
75700;SDS011;64321;48.796;44.740;2023-02-01T08:47:22;30.80;;;14.00;;
75700;SDS011;64321;48.796;44.740;2023-02-01T08:52:25;33.60;;;13.73;;
75700;SDS011;64321;48.796;44.740;2023-02-01T08:57:27;30.63;;;13.98;;
75700;SDS011;64321;48.796;44.740;2023-02-01T09:02:29;36.97;;;16.17;;
75700;SDS011;64321;48.796;44.740;2023-02-01T09:07:33;34.05;;;16.30;;
75700;SDS011;64321;48.796;44.740;2023-02-01T09:12:35;37.55;;;16.20;;
75700;SDS011;64321;48.796;44.740;2023-02-01T09:17:38;31.42;;;15.85;;
75700;SDS011;64321;48.796;44.740;2023-02-01T09:22:40;38.20;;;16.08;;
75700;SDS011;64321;48.796;44.740;2023-02-01T09:27:43;32.22;;;15.73;;
75700;SDS011;64321;48.796;44.740;2023-02-01T09:32:45;32.05;;;15.63;;
75700;SDS011;64321;48.796;44.740;2023-02-01T09:37:47;35.65;;;16.10;;
75700;SDS011;64321;48.796;44.740;2023-02-01T09:42:56;34.13;;;15.90;;
75700;SDS011;64321;48.796;44.740;2023-02-01T09:48:12;29.05;;;14.15;;
75700;SDS011;64321;48.796;44.740;2023-02-01T09:58:52;31.85;;;15.85;;
75700;SDS011;64321;48.796;44.740;2023-02-01T10:03:58;34.30;;;17.52;;
75700;SDS011;64321;48.796;44.740;2023-02-01T10:19:32;33.17;;;16.77;;
75700;SDS011;64321;48.796;44.740;2023-02-01T10:29:43;37.35;;;19.30;;
75700;SDS011;64321;48.796;44.740;2023-02-01T10:34:51;32.35;;;17.20;;
75700;SDS011;64321;48.796;44.740;2023-02-01T10:39:55;35.22;;;18.38;;
75700;SDS011;64321;48.796;44.740;2023-02-01T10:44:58;34.72;;;18.00;;
75700;SDS011;64321;48.796;44.740;2023-02-01T10:50:03;39.95;;;18.50;;
75700;SDS011;64321;48.796;44.740;2023-02-01T10:55:31;39.22;;;18.55;;
75700;SDS011;64321;48.796;44.740;2023-02-01T11:00:41;39.25;;;19.80;;
75700;SDS011;64321;48.796;44.740;2023-02-01T11:05:45;37.22;;;20.05;;
75700;SDS011;64321;48.796;44.740;2023-02-01T11:10:49;39.60;;;19.90;;
75700;SDS011;64321;48.796;44.740;2023-02-01T11:15:58;37.50;;;20.65;;
75700;SDS011;64321;48.796;44.740;2023-02-01T11:21:06;41.40;;;21.45;;
75700;SDS011;64321;48.796;44.740;2023-02-01T11:26:11;37.50;;;19.00;;
75700;SDS011;64321;48.796;44.740;2023-02-01T11:31:14;40.53;;;19.05;;
75700;SDS011;64321;48.796;44.740;2023-02-01T11:36:18;38.63;;;20.20;;
75700;SDS011;64321;48.796;44.740;2023-02-01T11:41:25;35.60;;;18.00;;
75700;SDS011;64321;48.796;44.740;2023-02-01T11:46:29;40.58;;;20.77;;
75700;SDS011;64321;48.796;44.740;2023-02-01T11:56:41;40.35;;;19.92;;
75700;SDS011;64321;48.796;44.740;2023-02-01T12:07:05;34.50;;;18.58;;
75700;SDS011;64321;48.796;44.740;2023-02-01T12:12:16;40.53;;;21.33;;
75700;SDS011;64321;48.796;44.740;2023-02-01T12:27:38;35.75;;;18.90;;
75700;SDS011;64321;48.796;44.740;2023-02-01T12:48:12;44.83;;;19.67;;
75700;SDS011;64321;48.796;44.740;2023-02-01T12:53:25;36.92;;;19.80;;
75700;SDS011;64321;48.796;44.740;2023-02-01T12:58:42;35.15;;;18.13;;
75700;SDS011;64321;48.796;44.740;2023-02-01T13:08:57;41.83;;;17.17;;
75700;SDS011;64321;48.796;44.740;2023-02-01T13:24:54;38.50;;;18.85;;
75700;SDS011;64321;48.796;44.740;2023-02-01T13:30:02;35.30;;;17.70;;
75700;SDS011;64321;48.796;44.740;2023-02-01T13:45:32;39.20;;;20.08;;
75700;SDS011;64321;48.796;44.740;2023-02-01T13:50:38;39.63;;;19.08;;
75700;SDS011;64321;48.796;44.740;2023-02-01T13:56:01;42.45;;;19.65;;
75700;SDS011;64321;48.796;44.740;2023-02-01T14:11:40;41.60;;;20.05;;
75700;SDS011;64321;48.796;44.740;2023-02-01T14:16:43;45.10;;;21.92;;
75700;SDS011;64321;48.796;44.740;2023-02-01T14:21:51;43.22;;;22.17;;
75700;SDS011;64321;48.796;44.740;2023-02-01T14:27:23;41.10;;;20.10;;
75700;SDS011;64321;48.796;44.740;2023-02-01T14:32:24;43.10;;;20.67;;
75700;SDS011;64321;48.796;44.740;2023-02-01T14:37:31;37.63;;;19.10;;
75700;SDS011;64321;48.796;44.740;2023-02-01T14:42:47;35.83;;;19.77;;
75700;SDS011;64321;48.796;44.740;2023-02-01T14:58:15;33.83;;;16.55;;
75700;SDS011;64321;48.796;44.740;2023-02-01T15:08:41;35.15;;;14.98;;
75700;SDS011;64321;48.796;44.740;2023-02-01T15:13:48;31.35;;;15.35;;
75700;SDS011;64321;48.796;44.740;2023-02-01T15:19:07;24.35;;;13.40;;
75700;SDS011;64321;48.796;44.740;2023-02-01T15:24:12;30.63;;;13.52;;
75700;SDS011;64321;48.796;44.740;2023-02-01T15:29:15;26.20;;;13.27;;
75700;SDS011;64321;48.796;44.740;2023-02-01T15:34:18;30.48;;;13.07;;
75700;SDS011;64321;48.796;44.740;2023-02-01T15:39:21;26.80;;;11.32;;
75700;SDS011;64321;48.796;44.740;2023-02-01T15:44:29;27.58;;;11.98;;
75700;SDS011;64321;48.796;44.740;2023-02-01T15:54:45;21.45;;;11.50;;
75700;SDS011;64321;48.796;44.740;2023-02-01T15:59:48;28.35;;;13.18;;
75700;SDS011;64321;48.796;44.740;2023-02-01T16:04:52;26.55;;;12.70;;
75700;SDS011;64321;48.796;44.740;2023-02-01T16:10:00;36.42;;;14.63;;
75700;SDS011;64321;48.796;44.740;2023-02-01T16:15:08;28.15;;;13.52;;
75700;SDS011;64321;48.796;44.740;2023-02-01T16:20:11;32.00;;;12.70;;
75700;SDS011;64321;48.796;44.740;2023-02-01T16:25:13;27.50;;;13.43;;
75700;SDS011;64321;48.796;44.740;2023-02-01T16:30:16;25.55;;;12.90;;
75700;SDS011;64321;48.796;44.740;2023-02-01T16:35:25;24.25;;;11.13;;
75700;SDS011;64321;48.796;44.740;2023-02-01T16:40:28;26.52;;;12.40;;
75700;SDS011;64321;48.796;44.740;2023-02-01T16:45:30;25.63;;;13.60;;
75700;SDS011;64321;48.796;44.740;2023-02-01T16:50:33;28.38;;;12.13;;
75700;SDS011;64321;48.796;44.740;2023-02-01T16:55:35;25.83;;;11.55;;
75700;SDS011;64321;48.796;44.740;2023-02-01T17:00:37;26.70;;;12.35;;
75700;SDS011;64321;48.796;44.740;2023-02-01T17:05:40;26.55;;;12.13;;
75700;SDS011;64321;48.796;44.740;2023-02-01T17:10:42;29.67;;;12.35;;
75700;SDS011;64321;48.796;44.740;2023-02-01T17:15:47;23.08;;;12.02;;
75700;SDS011;64321;48.796;44.740;2023-02-01T17:20:50;28.65;;;12.52;;
75700;SDS011;64321;48.796;44.740;2023-02-01T17:25:54;27.85;;;12.85;;
75700;SDS011;64321;48.796;44.740;2023-02-01T17:30:57;34.08;;;12.55;;
75700;SDS011;64321;48.796;44.740;2023-02-01T17:35:59;26.85;;;12.40;;
75700;SDS011;64321;48.796;44.740;2023-02-01T17:41:01;26.17;;;12.38;;
75700;SDS011;64321;48.796;44.740;2023-02-01T17:46:13;29.42;;;12.60;;
75700;SDS011;64321;48.796;44.740;2023-02-01T17:51:17;33.00;;;14.00;;
75700;SDS011;64321;48.796;44.740;2023-02-01T17:56:21;26.35;;;12.90;;
75700;SDS011;64321;48.796;44.740;2023-02-01T18:01:26;28.33;;;13.60;;
75700;SDS011;64321;48.796;44.740;2023-02-01T18:06:31;28.58;;;13.52;;
75700;SDS011;64321;48.796;44.740;2023-02-01T18:11:34;35.70;;;14.00;;
75700;SDS011;64321;48.796;44.740;2023-02-01T18:16:40;30.55;;;13.82;;
75700;SDS011;64321;48.796;44.740;2023-02-01T18:21:42;33.20;;;14.23;;
75700;SDS011;64321;48.796;44.740;2023-02-01T18:26:45;29.58;;;13.68;;
75700;SDS011;64321;48.796;44.740;2023-02-01T18:31:49;33.35;;;13.93;;
75700;SDS011;64321;48.796;44.740;2023-02-01T18:36:59;27.00;;;12.98;;
75700;SDS011;64321;48.796;44.740;2023-02-01T18:42:02;30.55;;;13.40;;
75700;SDS011;64321;48.796;44.740;2023-02-01T18:47:07;29.52;;;14.40;;
75700;SDS011;64321;48.796;44.740;2023-02-01T18:52:10;30.55;;;13.48;;
75700;SDS011;64321;48.796;44.740;2023-02-01T18:57:14;26.50;;;12.65;;
75700;SDS011;64321;48.796;44.740;2023-02-01T19:02:17;30.58;;;13.45;;
75700;SDS011;64321;48.796;44.740;2023-02-01T19:07:19;26.80;;;13.52;;
75700;SDS011;64321;48.796;44.740;2023-02-01T19:12:21;29.70;;;14.85;;
75700;SDS011;64321;48.796;44.740;2023-02-01T19:17:23;27.67;;;13.52;;
75700;SDS011;64321;48.796;44.740;2023-02-01T19:22:25;29.48;;;13.43;;
75700;SDS011;64321;48.796;44.740;2023-02-01T19:27:28;27.50;;;14.85;;
75700;SDS011;64321;48.796;44.740;2023-02-01T19:32:30;35.70;;;14.10;;
75700;SDS011;64321;48.796;44.740;2023-02-01T19:37:32;31.00;;;13.80;;
75700;SDS011;64321;48.796;44.740;2023-02-01T19:42:34;29.00;;;13.93;;
75700;SDS011;64321;48.796;44.740;2023-02-01T19:47:37;30.33;;;13.77;;
75700;SDS011;64321;48.796;44.740;2023-02-01T19:52:39;28.25;;;12.98;;
75700;SDS011;64321;48.796;44.740;2023-02-01T19:57:41;30.20;;;15.43;;
75700;SDS011;64321;48.796;44.740;2023-02-01T20:02:44;25.27;;;14.73;;
75700;SDS011;64321;48.796;44.740;2023-02-01T20:07:49;31.50;;;13.70;;
75700;SDS011;64321;48.796;44.740;2023-02-01T20:12:51;28.02;;;13.95;;
75700;SDS011;64321;48.796;44.740;2023-02-01T20:17:53;30.92;;;13.68;;
75700;SDS011;64321;48.796;44.740;2023-02-01T20:22:55;24.17;;;13.23;;
75700;SDS011;64321;48.796;44.740;2023-02-01T20:27:59;22.58;;;12.35;;
75700;SDS011;64321;48.796;44.740;2023-02-01T20:33:01;25.25;;;13.02;;
75700;SDS011;64321;48.796;44.740;2023-02-01T20:38:03;26.88;;;13.38;;
75700;SDS011;64321;48.796;44.740;2023-02-01T20:43:06;26.20;;;11.88;;
75700;SDS011;64321;48.796;44.740;2023-02-01T20:48:10;22.80;;;10.10;;
75700;SDS011;64321;48.796;44.740;2023-02-01T20:53:12;32.70;;;12.70;;
75700;SDS011;64321;48.796;44.740;2023-02-01T20:58:27;25.77;;;10.82;;
75700;SDS011;64321;48.796;44.740;2023-02-01T21:03:29;21.80;;;10.52;;
75700;SDS011;64321;48.796;44.740;2023-02-01T21:08:31;22.35;;;11.20;;
75700;SDS011;64321;48.796;44.740;2023-02-01T21:13:35;24.85;;;11.63;;
75700;SDS011;64321;48.796;44.740;2023-02-01T21:18:39;23.30;;;10.98;;
75700;SDS011;64321;48.796;44.740;2023-02-01T21:23:41;32.35;;;12.40;;
75700;SDS011;64321;48.796;44.740;2023-02-01T21:28:47;26.17;;;11.98;;
75700;SDS011;64321;48.796;44.740;2023-02-01T21:33:49;25.13;;;12.70;;
75700;SDS011;64321;48.796;44.740;2023-02-01T21:38:52;23.17;;;11.27;;
75700;SDS011;64321;48.796;44.740;2023-02-01T21:43:55;27.00;;;11.88;;
75700;SDS011;64321;48.796;44.740;2023-02-01T21:48:58;25.88;;;13.82;;
75700;SDS011;64321;48.796;44.740;2023-02-01T21:54:08;26.20;;;12.52;;
75700;SDS011;64321;48.796;44.740;2023-02-01T21:59:10;27.30;;;12.02;;
75700;SDS011;64321;48.796;44.740;2023-02-01T22:04:13;28.65;;;11.25;;
75700;SDS011;64321;48.796;44.740;2023-02-01T22:09:16;25.52;;;11.25;;
75700;SDS011;64321;48.796;44.740;2023-02-01T22:14:19;21.65;;;11.55;;
75700;SDS011;64321;48.796;44.740;2023-02-01T22:19:21;26.23;;;12.63;;
75700;SDS011;64321;48.796;44.740;2023-02-01T22:24:23;25.48;;;11.73;;
75700;SDS011;64321;48.796;44.740;2023-02-01T22:29:26;33.42;;;12.43;;
75700;SDS011;64321;48.796;44.740;2023-02-01T22:34:28;26.98;;;12.32;;
75700;SDS011;64321;48.796;44.740;2023-02-01T22:39:30;26.63;;;11.23;;
75700;SDS011;64321;48.796;44.740;2023-02-01T22:44:32;34.22;;;11.90;;
75700;SDS011;64321;48.796;44.740;2023-02-01T22:49:35;24.13;;;11.48;;
75700;SDS011;64321;48.796;44.740;2023-02-01T22:54:37;24.60;;;10.68;;
75700;SDS011;64321;48.796;44.740;2023-02-01T22:59:40;22.42;;;10.10;;
75700;SDS011;64321;48.796;44.740;2023-02-01T23:04:43;30.60;;;10.52;;
75700;SDS011;64321;48.796;44.740;2023-02-01T23:09:45;25.45;;;11.43;;
75700;SDS011;64321;48.796;44.740;2023-02-01T23:14:47;20.00;;;9.18;;
75700;SDS011;64321;48.796;44.740;2023-02-01T23:20:09;24.95;;;10.60;;
75700;SDS011;64321;48.796;44.740;2023-02-01T23:25:13;22.67;;;11.23;;
75700;SDS011;64321;48.796;44.740;2023-02-01T23:30:15;23.63;;;10.73;;
75700;SDS011;64321;48.796;44.740;2023-02-01T23:35:18;23.30;;;10.93;;
75700;SDS011;64321;48.796;44.740;2023-02-01T23:40:20;22.58;;;9.90;;
75700;SDS011;64321;48.796;44.740;2023-02-01T23:45:22;21.70;;;9.80;;
75700;SDS011;64321;48.796;44.740;2023-02-01T23:50:25;20.77;;;9.23;;
75700;SDS011;64321;48.796;44.740;2023-02-01T23:55:27;20.05;;;10.05;;
